sensor_id;sensor_type;location;lat;lon;timestamp;P1;durP1;ratioP1;P2;durP2;ratioP2
15677;SDS011;7939;50.814;6.368;2023-07-02T00:00:08;6.15;;;3.65;;
15677;SDS011;7939;50.814;6.368;2023-07-02T00:02:35;7.13;;;3.40;;
15677;SDS011;7939;50.814;6.368;2023-07-02T00:05:02;6.32;;;3.65;;
15677;SDS011;7939;50.814;6.368;2023-07-02T00:07:29;8.07;;;4.05;;
15677;SDS011;7939;50.814;6.368;2023-07-02T00:09:56;7.10;;;4.28;;
15677;SDS011;7939;50.814;6.368;2023-07-02T00:12:23;6.90;;;3.83;;
15677;SDS011;7939;50.814;6.368;2023-07-02T00:14:51;8.77;;;4.07;;
15677;SDS011;7939;50.814;6.368;2023-07-02T00:17:18;7.68;;;4.50;;
15677;SDS011;7939;50.814;6.368;2023-07-02T00:19:45;10.68;;;4.90;;
15677;SDS011;7939;50.814;6.368;2023-07-02T00:22:11;8.20;;;4.32;;
15677;SDS011;7939;50.814;6.368;2023-07-02T00:24:41;9.00;;;4.50;;
15677;SDS011;7939;50.814;6.368;2023-07-02T00:27:08;9.27;;;4.65;;
15677;SDS011;7939;50.814;6.368;2023-07-02T00:29:34;9.45;;;4.88;;
15677;SDS011;7939;50.814;6.368;2023-07-02T00:32:03;8.95;;;5.35;;
15677;SDS011;7939;50.814;6.368;2023-07-02T00:34:30;8.30;;;4.90;;
15677;SDS011;7939;50.814;6.368;2023-07-02T00:36:57;8.50;;;5.32;;
15677;SDS011;7939;50.814;6.368;2023-07-02T00:39:23;9.40;;;5.22;;
15677;SDS011;7939;50.814;6.368;2023-07-02T00:41:50;10.30;;;4.95;;
15677;SDS011;7939;50.814;6.368;2023-07-02T00:44:17;8.93;;;5.80;;
15677;SDS011;7939;50.814;6.368;2023-07-02T00:46:43;11.05;;;6.20;;
15677;SDS011;7939;50.814;6.368;2023-07-02T00:49:11;9.85;;;5.47;;
15677;SDS011;7939;50.814;6.368;2023-07-02T00:51:38;9.15;;;5.75;;
15677;SDS011;7939;50.814;6.368;2023-07-02T00:54:06;11.30;;;5.68;;
15677;SDS011;7939;50.814;6.368;2023-07-02T00:56:33;13.50;;;6.38;;
15677;SDS011;7939;50.814;6.368;2023-07-02T00:59:00;10.70;;;6.10;;
15677;SDS011;7939;50.814;6.368;2023-07-02T01:01:27;11.70;;;7.07;;
15677;SDS011;7939;50.814;6.368;2023-07-02T01:03:56;11.32;;;6.30;;
15677;SDS011;7939;50.814;6.368;2023-07-02T01:06:26;12.10;;;6.45;;
15677;SDS011;7939;50.814;6.368;2023-07-02T01:08:54;10.82;;;6.85;;
15677;SDS011;7939;50.814;6.368;2023-07-02T01:11:22;12.80;;;6.70;;
15677;SDS011;7939;50.814;6.368;2023-07-02T01:13:53;16.65;;;6.78;;
15677;SDS011;7939;50.814;6.368;2023-07-02T01:16:25;11.98;;;6.50;;
15677;SDS011;7939;50.814;6.368;2023-07-02T01:18:52;13.98;;;7.03;;
15677;SDS011;7939;50.814;6.368;2023-07-02T01:21:22;13.25;;;7.15;;
15677;SDS011;7939;50.814;6.368;2023-07-02T01:23:50;13.85;;;7.47;;
15677;SDS011;7939;50.814;6.368;2023-07-02T01:26:17;13.82;;;6.88;;
15677;SDS011;7939;50.814;6.368;2023-07-02T01:28:44;11.68;;;7.05;;
15677;SDS011;7939;50.814;6.368;2023-07-02T01:31:11;12.70;;;6.88;;
15677;SDS011;7939;50.814;6.368;2023-07-02T01:33:37;11.98;;;7.25;;
15677;SDS011;7939;50.814;6.368;2023-07-02T01:36:07;12.88;;;8.52;;
15677;SDS011;7939;50.814;6.368;2023-07-02T01:38:36;14.68;;;8.32;;
15677;SDS011;7939;50.814;6.368;2023-07-02T01:41:05;14.60;;;7.60;;
15677;SDS011;7939;50.814;6.368;2023-07-02T01:43:39;18.05;;;8.52;;
15677;SDS011;7939;50.814;6.368;2023-07-02T01:46:09;13.07;;;7.07;;
15677;SDS011;7939;50.814;6.368;2023-07-02T01:48:35;16.27;;;7.97;;
15677;SDS011;7939;50.814;6.368;2023-07-02T01:51:08;13.90;;;7.85;;
15677;SDS011;7939;50.814;6.368;2023-07-02T01:53:37;13.63;;;8.38;;
15677;SDS011;7939;50.814;6.368;2023-07-02T01:56:06;17.48;;;8.40;;
15677;SDS011;7939;50.814;6.368;2023-07-02T01:58:36;11.00;;;7.43;;
15677;SDS011;7939;50.814;6.368;2023-07-02T02:01:15;15.90;;;8.10;;
15677;SDS011;7939;50.814;6.368;2023-07-02T02:03:44;13.40;;;7.72;;
15677;SDS011;7939;50.814;6.368;2023-07-02T02:06:11;16.13;;;8.30;;
15677;SDS011;7939;50.814;6.368;2023-07-02T02:08:39;17.20;;;8.80;;
15677;SDS011;7939;50.814;6.368;2023-07-02T02:11:06;16.42;;;8.63;;
15677;SDS011;7939;50.814;6.368;2023-07-02T02:13:33;17.02;;;8.13;;
15677;SDS011;7939;50.814;6.368;2023-07-02T02:16:00;15.10;;;8.35;;
15677;SDS011;7939;50.814;6.368;2023-07-02T02:18:26;17.50;;;9.32;;
15677;SDS011;7939;50.814;6.368;2023-07-02T02:20:53;15.77;;;8.35;;
15677;SDS011;7939;50.814;6.368;2023-07-02T02:23:20;18.92;;;9.85;;
15677;SDS011;7939;50.814;6.368;2023-07-02T02:25:48;14.77;;;8.40;;
15677;SDS011;7939;50.814;6.368;2023-07-02T02:28:14;17.17;;;9.30;;
15677;SDS011;7939;50.814;6.368;2023-07-02T02:30:41;17.83;;;9.75;;
15677;SDS011;7939;50.814;6.368;2023-07-02T02:33:07;15.32;;;9.70;;
15677;SDS011;7939;50.814;6.368;2023-07-02T02:35:34;18.45;;;9.60;;
15677;SDS011;7939;50.814;6.368;2023-07-02T02:38:01;18.50;;;9.48;;
15677;SDS011;7939;50.814;6.368;2023-07-02T02:40:29;19.13;;;9.93;;
15677;SDS011;7939;50.814;6.368;2023-07-02T02:42:57;19.75;;;9.57;;
15677;SDS011;7939;50.814;6.368;2023-07-02T02:45:24;18.58;;;9.27;;
15677;SDS011;7939;50.814;6.368;2023-07-02T02:47:50;17.10;;;9.57;;
15677;SDS011;7939;50.814;6.368;2023-07-02T02:50:17;19.70;;;10.05;;
15677;SDS011;7939;50.814;6.368;2023-07-02T02:52:44;20.45;;;9.80;;
15677;SDS011;7939;50.814;6.368;2023-07-02T02:55:11;22.23;;;11.40;;
15677;SDS011;7939;50.814;6.368;2023-07-02T02:57:38;20.75;;;10.60;;
15677;SDS011;7939;50.814;6.368;2023-07-02T03:00:07;17.95;;;9.73;;
15677;SDS011;7939;50.814;6.368;2023-07-02T03:02:34;18.60;;;10.23;;
15677;SDS011;7939;50.814;6.368;2023-07-02T03:05:01;18.23;;;9.50;;
15677;SDS011;7939;50.814;6.368;2023-07-02T03:07:28;21.80;;;12.23;;
15677;SDS011;7939;50.814;6.368;2023-07-02T03:09:54;21.25;;;10.43;;
15677;SDS011;7939;50.814;6.368;2023-07-02T03:12:21;19.38;;;10.95;;
15677;SDS011;7939;50.814;6.368;2023-07-02T03:14:48;21.73;;;10.48;;
15677;SDS011;7939;50.814;6.368;2023-07-02T03:17:21;19.20;;;10.93;;
15677;SDS011;7939;50.814;6.368;2023-07-02T03:19:48;21.38;;;11.45;;
15677;SDS011;7939;50.814;6.368;2023-07-02T03:22:15;21.45;;;12.25;;
15677;SDS011;7939;50.814;6.368;2023-07-02T03:24:42;23.17;;;11.18;;
15677;SDS011;7939;50.814;6.368;2023-07-02T03:27:09;24.98;;;11.50;;
15677;SDS011;7939;50.814;6.368;2023-07-02T03:29:36;23.45;;;11.38;;
15677;SDS011;7939;50.814;6.368;2023-07-02T03:32:03;20.52;;;10.95;;
15677;SDS011;7939;50.814;6.368;2023-07-02T03:34:32;19.85;;;10.82;;
15677;SDS011;7939;50.814;6.368;2023-07-02T03:36:59;20.65;;;10.80;;
15677;SDS011;7939;50.814;6.368;2023-07-02T03:39:26;23.33;;;13.02;;
15677;SDS011;7939;50.814;6.368;2023-07-02T03:41:52;19.63;;;11.80;;
15677;SDS011;7939;50.814;6.368;2023-07-02T03:44:19;20.48;;;10.65;;
15677;SDS011;7939;50.814;6.368;2023-07-02T03:46:46;21.92;;;12.13;;
15677;SDS011;7939;50.814;6.368;2023-07-02T03:49:12;19.95;;;11.20;;
15677;SDS011;7939;50.814;6.368;2023-07-02T03:51:40;25.67;;;13.75;;
15677;SDS011;7939;50.814;6.368;2023-07-02T03:54:07;24.23;;;12.60;;
15677;SDS011;7939;50.814;6.368;2023-07-02T03:56:34;24.88;;;11.65;;
15677;SDS011;7939;50.814;6.368;2023-07-02T03:59:01;25.88;;;12.57;;
15677;SDS011;7939;50.814;6.368;2023-07-02T04:01:27;24.38;;;12.10;;
15677;SDS011;7939;50.814;6.368;2023-07-02T04:03:54;25.33;;;13.35;;
15677;SDS011;7939;50.814;6.368;2023-07-02T04:06:21;21.00;;;11.48;;
15677;SDS011;7939;50.814;6.368;2023-07-02T04:08:49;25.67;;;13.60;;
15677;SDS011;7939;50.814;6.368;2023-07-02T04:11:16;22.58;;;11.98;;
15677;SDS011;7939;50.814;6.368;2023-07-02T04:13:42;26.27;;;13.10;;
15677;SDS011;7939;50.814;6.368;2023-07-02T04:16:09;28.80;;;13.82;;
15677;SDS011;7939;50.814;6.368;2023-07-02T04:18:36;26.58;;;13.07;;
15677;SDS011;7939;50.814;6.368;2023-07-02T04:21:02;27.00;;;12.70;;
15677;SDS011;7939;50.814;6.368;2023-07-02T04:23:29;27.83;;;13.52;;
15677;SDS011;7939;50.814;6.368;2023-07-02T04:25:57;21.63;;;12.27;;
15677;SDS011;7939;50.814;6.368;2023-07-02T04:28:24;29.50;;;13.60;;
15677;SDS011;7939;50.814;6.368;2023-07-02T04:30:51;27.85;;;13.65;;
15677;SDS011;7939;50.814;6.368;2023-07-02T04:33:18;26.73;;;14.02;;
15677;SDS011;7939;50.814;6.368;2023-07-02T04:35:44;27.50;;;12.10;;
15677;SDS011;7939;50.814;6.368;2023-07-02T04:38:11;23.85;;;13.68;;
15677;SDS011;7939;50.814;6.368;2023-07-02T04:40:38;30.10;;;13.65;;
15677;SDS011;7939;50.814;6.368;2023-07-02T04:43:08;27.60;;;13.82;;
15677;SDS011;7939;50.814;6.368;2023-07-02T04:45:35;27.02;;;14.43;;
15677;SDS011;7939;50.814;6.368;2023-07-02T04:48:01;24.88;;;13.85;;
15677;SDS011;7939;50.814;6.368;2023-07-02T04:50:29;25.95;;;14.07;;
15677;SDS011;7939;50.814;6.368;2023-07-02T04:52:56;27.95;;;13.70;;
15677;SDS011;7939;50.814;6.368;2023-07-02T04:55:22;28.52;;;14.20;;
15677;SDS011;7939;50.814;6.368;2023-07-02T04:57:49;31.40;;;15.13;;
15677;SDS011;7939;50.814;6.368;2023-07-02T05:00:17;27.20;;;14.35;;
15677;SDS011;7939;50.814;6.368;2023-07-02T05:02:44;27.45;;;14.68;;
15677;SDS011;7939;50.814;6.368;2023-07-02T05:05:11;31.80;;;14.82;;
15677;SDS011;7939;50.814;6.368;2023-07-02T05:07:37;32.10;;;14.32;;
15677;SDS011;7939;50.814;6.368;2023-07-02T05:10:04;30.92;;;15.48;;
15677;SDS011;7939;50.814;6.368;2023-07-02T05:12:32;24.05;;;12.95;;
15677;SDS011;7939;50.814;6.368;2023-07-02T05:14:58;28.40;;;15.35;;
15677;SDS011;7939;50.814;6.368;2023-07-02T05:17:27;27.58;;;13.35;;
15677;SDS011;7939;50.814;6.368;2023-07-02T05:19:53;28.23;;;14.45;;
15677;SDS011;7939;50.814;6.368;2023-07-02T05:22:20;27.92;;;15.57;;
15677;SDS011;7939;50.814;6.368;2023-07-02T05:24:46;26.90;;;14.02;;
15677;SDS011;7939;50.814;6.368;2023-07-02T05:27:13;31.38;;;15.93;;
15677;SDS011;7939;50.814;6.368;2023-07-02T05:29:40;30.20;;;15.68;;
15677;SDS011;7939;50.814;6.368;2023-07-02T05:32:06;30.75;;;14.38;;
15677;SDS011;7939;50.814;6.368;2023-07-02T05:34:34;35.20;;;16.38;;
15677;SDS011;7939;50.814;6.368;2023-07-02T05:37:01;31.63;;;15.80;;
15677;SDS011;7939;50.814;6.368;2023-07-02T05:39:28;28.77;;;15.75;;
15677;SDS011;7939;50.814;6.368;2023-07-02T05:41:54;30.10;;;15.57;;
15677;SDS011;7939;50.814;6.368;2023-07-02T05:44:21;27.52;;;15.30;;
15677;SDS011;7939;50.814;6.368;2023-07-02T05:46:48;26.08;;;14.73;;
15677;SDS011;7939;50.814;6.368;2023-07-02T05:49:15;34.90;;;15.82;;
15677;SDS011;7939;50.814;6.368;2023-07-02T05:51:43;29.17;;;14.95;;
15677;SDS011;7939;50.814;6.368;2023-07-02T05:54:09;26.45;;;14.82;;
15677;SDS011;7939;50.814;6.368;2023-07-02T05:56:42;29.67;;;15.88;;
15677;SDS011;7939;50.814;6.368;2023-07-02T05:59:11;33.33;;;16.55;;
15677;SDS011;7939;50.814;6.368;2023-07-02T06:01:43;29.85;;;16.73;;
15677;SDS011;7939;50.814;6.368;2023-07-02T06:04:18;30.40;;;15.75;;
15677;SDS011;7939;50.814;6.368;2023-07-02T06:06:47;31.10;;;16.27;;
15677;SDS011;7939;50.814;6.368;2023-07-02T06:09:22;32.08;;;15.82;;
15677;SDS011;7939;50.814;6.368;2023-07-02T06:11:49;35.42;;;15.65;;
15677;SDS011;7939;50.814;6.368;2023-07-02T06:14:16;34.30;;;16.20;;
15677;SDS011;7939;50.814;6.368;2023-07-02T06:16:43;36.33;;;17.13;;
15677;SDS011;7939;50.814;6.368;2023-07-02T06:19:10;33.85;;;17.45;;
15677;SDS011;7939;50.814;6.368;2023-07-02T06:21:36;32.30;;;15.75;;
15677;SDS011;7939;50.814;6.368;2023-07-02T06:24:04;34.85;;;17.45;;
15677;SDS011;7939;50.814;6.368;2023-07-02T06:26:32;31.73;;;16.90;;
15677;SDS011;7939;50.814;6.368;2023-07-02T06:28:58;33.60;;;17.23;;
15677;SDS011;7939;50.814;6.368;2023-07-02T06:31:25;31.75;;;16.25;;
15677;SDS011;7939;50.814;6.368;2023-07-02T06:33:51;28.65;;;16.42;;
15677;SDS011;7939;50.814;6.368;2023-07-02T06:36:18;34.40;;;15.98;;
15677;SDS011;7939;50.814;6.368;2023-07-02T06:38:45;31.80;;;17.20;;
15677;SDS011;7939;50.814;6.368;2023-07-02T06:41:13;31.05;;;16.38;;
15677;SDS011;7939;50.814;6.368;2023-07-02T06:43:41;31.88;;;16.50;;
15677;SDS011;7939;50.814;6.368;2023-07-02T06:46:09;30.98;;;16.42;;
15677;SDS011;7939;50.814;6.368;2023-07-02T06:48:36;33.90;;;15.93;;
15677;SDS011;7939;50.814;6.368;2023-07-02T06:51:03;31.15;;;17.48;;
15677;SDS011;7939;50.814;6.368;2023-07-02T06:53:29;32.47;;;15.85;;
15677;SDS011;7939;50.814;6.368;2023-07-02T06:55:56;35.72;;;15.60;;
15677;SDS011;7939;50.814;6.368;2023-07-02T06:58:32;26.55;;;15.73;;
15677;SDS011;7939;50.814;6.368;2023-07-02T07:00:58;35.05;;;16.35;;
15677;SDS011;7939;50.814;6.368;2023-07-02T07:03:27;31.92;;;16.35;;
15677;SDS011;7939;50.814;6.368;2023-07-02T07:06:06;35.38;;;17.80;;
15677;SDS011;7939;50.814;6.368;2023-07-02T07:08:39;33.58;;;17.38;;
15677;SDS011;7939;50.814;6.368;2023-07-02T07:11:25;36.35;;;17.90;;
15677;SDS011;7939;50.814;6.368;2023-07-02T07:13:59;35.35;;;17.30;;
15677;SDS011;7939;50.814;6.368;2023-07-02T07:16:31;29.60;;;16.08;;
15677;SDS011;7939;50.814;6.368;2023-07-02T07:19:04;31.27;;;16.77;;
15677;SDS011;7939;50.814;6.368;2023-07-02T07:21:32;29.88;;;16.92;;
15677;SDS011;7939;50.814;6.368;2023-07-02T07:23:59;31.77;;;16.58;;
15677;SDS011;7939;50.814;6.368;2023-07-02T07:26:28;27.02;;;15.30;;
15677;SDS011;7939;50.814;6.368;2023-07-02T07:28:55;30.23;;;16.00;;
15677;SDS011;7939;50.814;6.368;2023-07-02T07:31:28;30.15;;;16.02;;
15677;SDS011;7939;50.814;6.368;2023-07-02T07:34:03;32.70;;;16.00;;
15677;SDS011;7939;50.814;6.368;2023-07-02T07:36:30;29.10;;;15.38;;
15677;SDS011;7939;50.814;6.368;2023-07-02T07:38:58;27.42;;;14.77;;
15677;SDS011;7939;50.814;6.368;2023-07-02T07:41:28;31.60;;;15.38;;
15677;SDS011;7939;50.814;6.368;2023-07-02T07:44:09;32.80;;;15.13;;
15677;SDS011;7939;50.814;6.368;2023-07-02T07:46:38;29.88;;;15.52;;
15677;SDS011;7939;50.814;6.368;2023-07-02T07:49:06;32.13;;;15.43;;
15677;SDS011;7939;50.814;6.368;2023-07-02T07:51:40;35.72;;;14.90;;
15677;SDS011;7939;50.814;6.368;2023-07-02T07:54:07;31.45;;;16.58;;
15677;SDS011;7939;50.814;6.368;2023-07-02T07:56:34;25.13;;;14.52;;
15677;SDS011;7939;50.814;6.368;2023-07-02T07:59:10;36.03;;;15.73;;
15677;SDS011;7939;50.814;6.368;2023-07-02T08:01:40;28.70;;;14.10;;
15677;SDS011;7939;50.814;6.368;2023-07-02T08:04:06;26.95;;;14.65;;
15677;SDS011;7939;50.814;6.368;2023-07-02T08:06:33;29.80;;;14.10;;
15677;SDS011;7939;50.814;6.368;2023-07-02T08:09:00;22.38;;;13.63;;
15677;SDS011;7939;50.814;6.368;2023-07-02T08:11:28;26.85;;;14.82;;
15677;SDS011;7939;50.814;6.368;2023-07-02T08:13:55;28.40;;;13.63;;
15677;SDS011;7939;50.814;6.368;2023-07-02T08:16:21;29.00;;;14.25;;
15677;SDS011;7939;50.814;6.368;2023-07-02T08:18:49;27.67;;;12.95;;
15677;SDS011;7939;50.814;6.368;2023-07-02T08:21:16;29.67;;;13.15;;
15677;SDS011;7939;50.814;6.368;2023-07-02T08:23:43;23.20;;;12.95;;
15677;SDS011;7939;50.814;6.368;2023-07-02T08:26:10;26.80;;;13.90;;
15677;SDS011;7939;50.814;6.368;2023-07-02T08:28:37;23.00;;;12.35;;
15677;SDS011;7939;50.814;6.368;2023-07-02T08:31:04;29.65;;;13.32;;
15677;SDS011;7939;50.814;6.368;2023-07-02T08:33:30;26.25;;;12.70;;
15677;SDS011;7939;50.814;6.368;2023-07-02T08:35:58;29.15;;;14.63;;
15677;SDS011;7939;50.814;6.368;2023-07-02T08:38:25;26.02;;;12.57;;
15677;SDS011;7939;50.814;6.368;2023-07-02T08:40:52;29.52;;;13.07;;
15677;SDS011;7939;50.814;6.368;2023-07-02T08:43:19;22.48;;;12.80;;
15677;SDS011;7939;50.814;6.368;2023-07-02T08:45:45;29.98;;;13.82;;
15677;SDS011;7939;50.814;6.368;2023-07-02T08:48:12;26.63;;;14.30;;
15677;SDS011;7939;50.814;6.368;2023-07-02T08:50:39;30.13;;;14.05;;
15677;SDS011;7939;50.814;6.368;2023-07-02T08:53:07;26.90;;;12.70;;
15677;SDS011;7939;50.814;6.368;2023-07-02T08:55:34;26.33;;;12.98;;
15677;SDS011;7939;50.814;6.368;2023-07-02T08:58:00;28.73;;;13.07;;
15677;SDS011;7939;50.814;6.368;2023-07-02T09:00:27;25.80;;;14.15;;
15677;SDS011;7939;50.814;6.368;2023-07-02T09:02:56;27.70;;;13.05;;
15677;SDS011;7939;50.814;6.368;2023-07-02T09:05:22;25.25;;;12.48;;
15677;SDS011;7939;50.814;6.368;2023-07-02T09:07:49;27.80;;;13.35;;
15677;SDS011;7939;50.814;6.368;2023-07-02T09:10:29;23.40;;;12.02;;
15677;SDS011;7939;50.814;6.368;2023-07-02T09:13:03;29.17;;;13.40;;
15677;SDS011;7939;50.814;6.368;2023-07-02T09:15:34;23.23;;;13.13;;
15677;SDS011;7939;50.814;6.368;2023-07-02T09:18:02;26.08;;;13.10;;
15677;SDS011;7939;50.814;6.368;2023-07-02T09:20:32;27.17;;;13.40;;
15677;SDS011;7939;50.814;6.368;2023-07-02T09:22:59;21.50;;;12.30;;
15677;SDS011;7939;50.814;6.368;2023-07-02T09:25:36;23.60;;;12.93;;
15677;SDS011;7939;50.814;6.368;2023-07-02T09:28:13;29.42;;;13.57;;
15677;SDS011;7939;50.814;6.368;2023-07-02T09:30:48;22.95;;;12.00;;
15677;SDS011;7939;50.814;6.368;2023-07-02T09:33:16;22.88;;;12.50;;
15677;SDS011;7939;50.814;6.368;2023-07-02T09:35:43;23.67;;;11.80;;
15677;SDS011;7939;50.814;6.368;2023-07-02T09:38:10;26.38;;;11.82;;
15677;SDS011;7939;50.814;6.368;2023-07-02T09:40:42;22.10;;;11.88;;
15677;SDS011;7939;50.814;6.368;2023-07-02T09:43:12;21.00;;;11.32;;
15677;SDS011;7939;50.814;6.368;2023-07-02T09:45:41;22.15;;;10.52;;
15677;SDS011;7939;50.814;6.368;2023-07-02T09:48:09;23.48;;;11.55;;
15677;SDS011;7939;50.814;6.368;2023-07-02T09:50:39;24.83;;;13.00;;
15677;SDS011;7939;50.814;6.368;2023-07-02T09:53:10;22.35;;;11.57;;
15677;SDS011;7939;50.814;6.368;2023-07-02T09:55:42;23.80;;;11.07;;
15677;SDS011;7939;50.814;6.368;2023-07-02T09:58:22;26.67;;;12.48;;
15677;SDS011;7939;50.814;6.368;2023-07-02T10:00:49;24.92;;;12.02;;
15677;SDS011;7939;50.814;6.368;2023-07-02T10:03:16;25.58;;;12.50;;
15677;SDS011;7939;50.814;6.368;2023-07-02T10:05:43;24.50;;;12.27;;
15677;SDS011;7939;50.814;6.368;2023-07-02T10:08:13;27.38;;;12.88;;
15677;SDS011;7939;50.814;6.368;2023-07-02T10:10:43;29.73;;;12.90;;
15677;SDS011;7939;50.814;6.368;2023-07-02T10:13:10;23.48;;;11.65;;
15677;SDS011;7939;50.814;6.368;2023-07-02T10:15:37;21.67;;;12.07;;
15677;SDS011;7939;50.814;6.368;2023-07-02T10:18:06;20.92;;;11.18;;
15677;SDS011;7939;50.814;6.368;2023-07-02T10:20:35;30.75;;;12.18;;
15677;SDS011;7939;50.814;6.368;2023-07-02T10:23:02;24.02;;;11.82;;
15677;SDS011;7939;50.814;6.368;2023-07-02T10:25:30;18.88;;;10.75;;
15677;SDS011;7939;50.814;6.368;2023-07-02T10:28:00;27.42;;;11.60;;
15677;SDS011;7939;50.814;6.368;2023-07-02T10:30:31;24.40;;;11.20;;
15677;SDS011;7939;50.814;6.368;2023-07-02T10:33:08;22.58;;;11.68;;
15677;SDS011;7939;50.814;6.368;2023-07-02T10:35:36;20.10;;;10.20;;
15677;SDS011;7939;50.814;6.368;2023-07-02T10:38:03;23.10;;;10.25;;
15677;SDS011;7939;50.814;6.368;2023-07-02T10:40:31;20.90;;;10.27;;
15677;SDS011;7939;50.814;6.368;2023-07-02T10:43:00;26.63;;;10.02;;
15677;SDS011;7939;50.814;6.368;2023-07-02T10:45:30;21.77;;;9.73;;
15677;SDS011;7939;50.814;6.368;2023-07-02T10:47:58;23.73;;;10.80;;
15677;SDS011;7939;50.814;6.368;2023-07-02T10:50:24;24.25;;;10.60;;
15677;SDS011;7939;50.814;6.368;2023-07-02T10:52:53;24.88;;;12.00;;
15677;SDS011;7939;50.814;6.368;2023-07-02T10:55:20;20.60;;;11.07;;
15677;SDS011;7939;50.814;6.368;2023-07-02T10:57:47;23.52;;;11.05;;
15677;SDS011;7939;50.814;6.368;2023-07-02T11:00:17;23.30;;;11.23;;
15677;SDS011;7939;50.814;6.368;2023-07-02T11:02:45;21.63;;;10.93;;
15677;SDS011;7939;50.814;6.368;2023-07-02T11:05:11;20.85;;;10.07;;
15677;SDS011;7939;50.814;6.368;2023-07-02T11:07:38;26.75;;;11.73;;
15677;SDS011;7939;50.814;6.368;2023-07-02T11:10:05;25.77;;;12.90;;
15677;SDS011;7939;50.814;6.368;2023-07-02T11:12:33;21.15;;;11.85;;
15677;SDS011;7939;50.814;6.368;2023-07-02T11:15:09;23.35;;;12.35;;
15677;SDS011;7939;50.814;6.368;2023-07-02T11:17:37;25.77;;;11.45;;
15677;SDS011;7939;50.814;6.368;2023-07-02T11:20:06;25.85;;;10.52;;
15677;SDS011;7939;50.814;6.368;2023-07-02T11:22:34;22.65;;;11.63;;
15677;SDS011;7939;50.814;6.368;2023-07-02T11:25:11;21.83;;;12.07;;
15677;SDS011;7939;50.814;6.368;2023-07-02T11:27:39;22.00;;;10.80;;
15677;SDS011;7939;50.814;6.368;2023-07-02T11:30:06;18.50;;;9.82;;
15677;SDS011;7939;50.814;6.368;2023-07-02T11:32:34;23.25;;;9.77;;
15677;SDS011;7939;50.814;6.368;2023-07-02T11:35:13;22.58;;;9.85;;
15677;SDS011;7939;50.814;6.368;2023-07-02T11:37:40;23.10;;;10.02;;
15677;SDS011;7939;50.814;6.368;2023-07-02T11:40:07;16.23;;;9.43;;
15677;SDS011;7939;50.814;6.368;2023-07-02T11:42:35;16.17;;;9.93;;
15677;SDS011;7939;50.814;6.368;2023-07-02T11:45:01;20.08;;;9.23;;
15677;SDS011;7939;50.814;6.368;2023-07-02T11:47:28;21.30;;;9.88;;
15677;SDS011;7939;50.814;6.368;2023-07-02T11:49:56;21.98;;;9.75;;
15677;SDS011;7939;50.814;6.368;2023-07-02T11:52:24;17.73;;;10.27;;
15677;SDS011;7939;50.814;6.368;2023-07-02T11:54:51;19.92;;;10.40;;
15677;SDS011;7939;50.814;6.368;2023-07-02T11:57:17;22.65;;;10.68;;
15677;SDS011;7939;50.814;6.368;2023-07-02T11:59:44;18.55;;;10.20;;
15677;SDS011;7939;50.814;6.368;2023-07-02T12:02:11;21.38;;;9.77;;
15677;SDS011;7939;50.814;6.368;2023-07-02T12:04:38;22.98;;;11.50;;
15677;SDS011;7939;50.814;6.368;2023-07-02T12:07:06;17.98;;;9.57;;
15677;SDS011;7939;50.814;6.368;2023-07-02T12:09:32;18.80;;;9.25;;
15677;SDS011;7939;50.814;6.368;2023-07-02T12:11:59;19.20;;;9.82;;
15677;SDS011;7939;50.814;6.368;2023-07-02T12:14:26;19.92;;;9.68;;
15677;SDS011;7939;50.814;6.368;2023-07-02T12:16:52;20.70;;;10.05;;
15677;SDS011;7939;50.814;6.368;2023-07-02T12:19:19;20.65;;;9.88;;
15677;SDS011;7939;50.814;6.368;2023-07-02T12:21:46;23.85;;;10.27;;
15677;SDS011;7939;50.814;6.368;2023-07-02T12:24:14;23.15;;;10.82;;
15677;SDS011;7939;50.814;6.368;2023-07-02T12:26:42;21.40;;;10.48;;
15677;SDS011;7939;50.814;6.368;2023-07-02T12:29:08;18.70;;;9.18;;
15677;SDS011;7939;50.814;6.368;2023-07-02T12:31:35;19.42;;;9.13;;
15677;SDS011;7939;50.814;6.368;2023-07-02T12:34:02;22.23;;;9.65;;
15677;SDS011;7939;50.814;6.368;2023-07-02T12:36:29;19.40;;;10.00;;
15677;SDS011;7939;50.814;6.368;2023-07-02T12:38:55;23.20;;;10.25;;
15677;SDS011;7939;50.814;6.368;2023-07-02T12:41:23;22.65;;;9.77;;
15677;SDS011;7939;50.814;6.368;2023-07-02T12:43:50;17.88;;;9.57;;
15677;SDS011;7939;50.814;6.368;2023-07-02T12:46:16;18.70;;;9.25;;
15677;SDS011;7939;50.814;6.368;2023-07-02T12:48:43;17.10;;;8.98;;
15677;SDS011;7939;50.814;6.368;2023-07-02T12:51:09;20.30;;;10.10;;
15677;SDS011;7939;50.814;6.368;2023-07-02T12:53:36;21.20;;;10.82;;
15677;SDS011;7939;50.814;6.368;2023-07-02T12:56:03;17.13;;;10.02;;
15677;SDS011;7939;50.814;6.368;2023-07-02T12:58:32;21.05;;;9.70;;
15677;SDS011;7939;50.814;6.368;2023-07-02T13:00:58;16.33;;;9.00;;
15677;SDS011;7939;50.814;6.368;2023-07-02T13:03:25;18.45;;;8.80;;
15677;SDS011;7939;50.814;6.368;2023-07-02T13:05:52;17.13;;;9.23;;
15677;SDS011;7939;50.814;6.368;2023-07-02T13:08:19;21.08;;;9.63;;
15677;SDS011;7939;50.814;6.368;2023-07-02T13:10:46;25.60;;;11.27;;
15677;SDS011;7939;50.814;6.368;2023-07-02T13:13:12;21.60;;;10.35;;
15677;SDS011;7939;50.814;6.368;2023-07-02T13:15:40;18.42;;;9.85;;
15677;SDS011;7939;50.814;6.368;2023-07-02T13:18:07;18.17;;;9.13;;
15677;SDS011;7939;50.814;6.368;2023-07-02T13:20:34;20.23;;;9.77;;
15677;SDS011;7939;50.814;6.368;2023-07-02T13:23:02;17.20;;;10.15;;
15677;SDS011;7939;50.814;6.368;2023-07-02T13:25:29;19.90;;;10.25;;
15677;SDS011;7939;50.814;6.368;2023-07-02T13:27:56;26.35;;;10.27;;
15677;SDS011;7939;50.814;6.368;2023-07-02T13:30:23;24.73;;;11.38;;
15677;SDS011;7939;50.814;6.368;2023-07-02T13:32:52;19.70;;;9.98;;
15677;SDS011;7939;50.814;6.368;2023-07-02T13:35:19;21.52;;;8.90;;
15677;SDS011;7939;50.814;6.368;2023-07-02T13:37:47;24.98;;;10.25;;
15677;SDS011;7939;50.814;6.368;2023-07-02T13:40:14;23.73;;;10.10;;
15677;SDS011;7939;50.814;6.368;2023-07-02T13:42:41;21.52;;;9.73;;
15677;SDS011;7939;50.814;6.368;2023-07-02T13:45:08;18.92;;;10.55;;
15677;SDS011;7939;50.814;6.368;2023-07-02T13:47:35;21.25;;;10.75;;
15677;SDS011;7939;50.814;6.368;2023-07-02T13:50:05;17.23;;;9.40;;
15677;SDS011;7939;50.814;6.368;2023-07-02T13:52:32;21.05;;;9.48;;
15677;SDS011;7939;50.814;6.368;2023-07-02T13:54:59;20.80;;;9.55;;
15677;SDS011;7939;50.814;6.368;2023-07-02T13:57:25;18.23;;;9.00;;
15677;SDS011;7939;50.814;6.368;2023-07-02T13:59:53;19.13;;;10.13;;
15677;SDS011;7939;50.814;6.368;2023-07-02T14:02:22;18.60;;;8.82;;
15677;SDS011;7939;50.814;6.368;2023-07-02T14:04:48;19.80;;;10.05;;
15677;SDS011;7939;50.814;6.368;2023-07-02T14:07:15;20.70;;;9.23;;
15677;SDS011;7939;50.814;6.368;2023-07-02T14:09:42;20.33;;;10.05;;
15677;SDS011;7939;50.814;6.368;2023-07-02T14:12:09;18.08;;;10.05;;
15677;SDS011;7939;50.814;6.368;2023-07-02T14:14:37;21.10;;;10.43;;
15677;SDS011;7939;50.814;6.368;2023-07-02T14:17:05;20.45;;;10.05;;
15677;SDS011;7939;50.814;6.368;2023-07-02T14:19:31;22.52;;;10.52;;
15677;SDS011;7939;50.814;6.368;2023-07-02T14:21:58;21.05;;;10.02;;
15677;SDS011;7939;50.814;6.368;2023-07-02T14:24:25;24.70;;;10.52;;
15677;SDS011;7939;50.814;6.368;2023-07-02T14:26:52;17.58;;;9.50;;
15677;SDS011;7939;50.814;6.368;2023-07-02T14:29:19;20.35;;;9.45;;
15677;SDS011;7939;50.814;6.368;2023-07-02T14:31:45;18.65;;;9.50;;
15677;SDS011;7939;50.814;6.368;2023-07-02T14:34:13;21.90;;;10.65;;
15677;SDS011;7939;50.814;6.368;2023-07-02T14:36:40;18.75;;;9.73;;
15677;SDS011;7939;50.814;6.368;2023-07-02T14:39:07;20.75;;;10.30;;
15677;SDS011;7939;50.814;6.368;2023-07-02T14:41:33;22.77;;;9.73;;